Time;durP1;ratioP1;P1;durP2;ratioP2;P2;SDS_P1;SDS_P2;PMS_P1;PMS_P2;Temp;Humidity;BMP_temperature;BMP_pressure;BME280_temperature;BME280_humidity;BME280_pressure;Samples;Min_cycle;Max_cycle;Signal;HPM_P1;HPM_P2
2022/07/23 00:01:18;;;;;;;5.90;3.00;;;;;;;;;;4937476;28;20042;-76
2022/07/23 00:03:46;;;;;;;5.22;3.00;;;;;;;;;;4944277;28;20043;-77
2022/07/23 00:06:14;;;;;;;4.35;2.80;;;;;;;;;;4935968;28;20042;-74
2022/07/23 00:08:39;;;;;;;5.28;2.83;;;;;;;;;;4951497;28;20145;-76
2022/07/23 00:11:04;;;;;;;5.32;2.58;;;;;;;;;;4950030;28;20149;-76
2022/07/23 00:13:29;;;;;;;4.50;2.60;;;;;;;;;;4936264;28;20153;-75
2022/07/23 00:15:55;;;;;;;7.18;3.22;;;;;;;;;;4936189;28;20078;-76
2022/07/23 00:18:20;;;;;;;5.38;2.90;;;;;;;;;;4937317;28;21002;-75
2022/07/23 00:20:45;;;;;;;4.07;2.70;;;;;;;;;;4936568;28;20042;-75
2022/07/23 00:23:11;;;;;;;6.20;3.03;;;;;;;;;;4936328;28;20035;-77
2022/07/23 00:25:36;;;;;;;4.88;2.55;;;;;;;;;;4936846;28;20802;-77
2022/07/23 00:28:02;;;;;;;5.57;2.55;;;;;;;;;;4935378;28;20047;-76
2022/07/23 00:30:29;;;;;;;4.75;2.83;;;;;;;;;;4936867;28;20035;-76
2022/07/23 00:32:56;;;;;;;3.28;2.95;;;;;;;;;;4935474;28;20039;-77
2022/07/23 00:35:22;;;;;;;4.85;2.60;;;;;;;;;;4936041;28;20050;-76
2022/07/23 00:37:47;;;;;;;5.25;2.70;;;;;;;;;;4935719;28;21622;-75
2022/07/23 00:40:13;;;;;;;7.10;3.13;;;;;;;;;;4935215;28;20046;-75
2022/07/23 00:42:39;;;;;;;5.68;2.88;;;;;;;;;;4940546;28;20872;-76
2022/07/23 00:45:04;;;;;;;5.65;2.70;;;;;;;;;;4936087;28;20513;-76
2022/07/23 00:47:30;;;;;;;3.50;2.60;;;;;;;;;;4936316;28;20050;-75
2022/07/23 00:49:58;;;;;;;5.40;3.00;;;;;;;;;;4939274;28;20138;-77
2022/07/23 00:52:23;;;;;;;5.50;2.88;;;;;;;;;;4935581;28;20607;-75
2022/07/23 00:54:49;;;;;;;3.58;2.70;;;;;;;;;;4934034;28;20047;-76
2022/07/23 00:57:14;;;;;;;5.65;3.00;;;;;;;;;;4950350;28;20058;-75
2022/07/23 00:59:40;;;;;;;8.50;2.97;;;;;;;;;;4936126;28;20945;-75
2022/07/23 01:02:06;;;;;;;4.93;2.63;;;;;;;;;;4935277;28;20819;-76
2022/07/23 01:04:31;;;;;;;3.90;2.60;;;;;;;;;;4935602;28;20794;-75
2022/07/23 01:06:58;;;;;;;4.78;2.85;;;;;;;;;;4930057;28;20062;-75
2022/07/23 01:09:23;;;;;;;5.50;3.10;;;;;;;;;;4935598;28;20160;-75
2022/07/23 01:11:50;;;;;;;5.60;3.20;;;;;;;;;;4944050;28;20039;-75
2022/07/23 01:14:16;;;;;;;7.07;3.58;;;;;;;;;;4935892;28;20054;-75
2022/07/23 01:16:42;;;;;;;4.50;3.00;;;;;;;;;;4935322;28;20046;-74
2022/07/23 01:19:08;;;;;;;4.57;2.85;;;;;;;;;;4935627;28;20050;-74
2022/07/23 01:21:53;;;;;;;5.80;3.17;;;;;;;;;;4935140;28;20074;-74
2022/07/23 01:24:24;;;;;;;4.25;2.83;;;;;;;;;;4935243;28;20586;-74
2022/07/23 01:26:50;;;;;;;6.22;3.05;;;;;;;;;;4934537;28;20034;-75
2022/07/23 01:29:16;;;;;;;4.82;2.83;;;;;;;;;;4932383;28;20061;-74
2022/07/23 01:31:42;;;;;;;4.78;3.20;;;;;;;;;;4935612;28;20046;-75
2022/07/23 01:34:07;;;;;;;6.13;3.50;;;;;;;;;;4948719;28;20047;-74
2022/07/23 01:36:34;;;;;;;4.60;3.25;;;;;;;;;;4935252;28;20042;-75
2022/07/23 01:38:59;;;;;;;4.82;3.13;;;;;;;;;;4935486;28;20082;-75
2022/07/23 01:41:24;;;;;;;5.50;3.33;;;;;;;;;;4935141;28;20143;-74
2022/07/23 01:43:52;;;;;;;6.85;3.22;;;;;;;;;;4934694;28;20143;-76
2022/07/23 01:46:17;;;;;;;7.53;3.15;;;;;;;;;;4934566;28;20043;-76
2022/07/23 01:48:43;;;;;;;7.53;3.38;;;;;;;;;;4930856;28;22186;-76
2022/07/23 01:51:08;;;;;;;8.25;4.22;;;;;;;;;;4944185;28;20804;-76
2022/07/23 01:53:34;;;;;;;6.68;3.80;;;;;;;;;;4938253;28;20042;-75
2022/07/23 01:56:00;;;;;;;6.60;3.55;;;;;;;;;;4933680;28;20055;-75
2022/07/23 01:58:26;;;;;;;6.97;3.78;;;;;;;;;;4942472;28;21049;-76
2022/07/23 02:00:51;;;;;;;6.50;3.35;;;;;;;;;;4933605;28;20042;-76
2022/07/23 02:03:17;;;;;;;8.13;3.15;;;;;;;;;;4932345;28;20038;-76
2022/07/23 02:05:42;;;;;;;7.20;3.70;;;;;;;;;;4934783;28;20849;-75
2022/07/23 02:08:10;;;;;;;4.28;3.17;;;;;;;;;;4934913;28;20030;-75
2022/07/23 02:10:36;;;;;;;5.45;3.00;;;;;;;;;;4934768;28;20035;-74
2022/07/23 02:13:01;;;;;;;4.22;3.20;;;;;;;;;;4923366;28;20037;-75
2022/07/23 02:15:26;;;;;;;5.20;3.33;;;;;;;;;;4941892;28;20058;-75
2022/07/23 02:17:51;;;;;;;6.95;3.00;;;;;;;;;;4934097;28;20574;-75
2022/07/23 02:20:17;;;;;;;6.00;3.28;;;;;;;;;;4942193;28;20340;-75
2022/07/23 02:22:43;;;;;;;5.20;2.90;;;;;;;;;;4922174;28;20903;-75
2022/07/23 02:25:11;;;;;;;6.55;3.35;;;;;;;;;;4934124;28;20142;-75
2022/07/23 02:27:36;;;;;;;5.95;3.10;;;;;;;;;;4932805;28;20038;-76
2022/07/23 02:30:02;;;;;;;5.93;3.05;;;;;;;;;;4933080;28;20049;-76
2022/07/23 02:32:28;;;;;;;4.35;3.33;;;;;;;;;;4933912;28;20097;-76
2022/07/23 02:34:53;;;;;;;5.35;3.50;;;;;;;;;;4933055;28;20046;-75
2022/07/23 02:37:18;;;;;;;5.65;3.40;;;;;;;;;;4933820;28;20027;-75
2022/07/23 02:39:44;;;;;;;3.97;2.75;;;;;;;;;;4933963;28;20114;-74
2022/07/23 02:42:10;;;;;;;5.88;3.58;;;;;;;;;;4934006;28;20046;-77
2022/07/23 02:44:35;;;;;;;4.10;3.03;;;;;;;;;;4947534;28;20065;-75
2022/07/23 02:47:01;;;;;;;5.38;3.08;;;;;;;;;;4933120;28;20033;-75
2022/07/23 02:49:26;;;;;;;4.32;3.08;;;;;;;;;;4936082;28;20061;-74
2022/07/23 02:51:54;;;;;;;7.07;3.17;;;;;;;;;;4933761;28;20042;-75
2022/07/23 02:54:19;;;;;;;7.25;3.33;;;;;;;;;;4934532;28;20902;-75
2022/07/23 02:56:47;;;;;;;5.10;3.03;;;;;;;;;;4942162;28;20069;-76
2022/07/23 02:59:12;;;;;;;6.30;3.90;;;;;;;;;;4933817;28;22374;-75
2022/07/23 03:01:38;;;;;;;5.43;3.15;;;;;;;;;;4933756;28;20144;-75
2022/07/23 03:04:03;;;;;;;4.95;2.90;;;;;;;;;;4933144;28;20039;-75
2022/07/23 03:06:31;;;;;;;6.05;3.08;;;;;;;;;;4933847;28;20042;-74
2022/07/23 03:08:56;;;;;;;5.65;3.33;;;;;;;;;;4933029;28;20804;-76
2022/07/23 03:11:23;;;;;;;5.82;3.30;;;;;;;;;;4933256;28;20038;-76
2022/07/23 03:13:48;;;;;;;8.48;3.35;;;;;;;;;;4933833;28;20312;-77
2022/07/23 03:16:14;;;;;;;5.30;3.20;;;;;;;;;;4937150;28;20059;-76
2022/07/23 03:18:39;;;;;;;5.88;3.30;;;;;;;;;;4939841;28;20055;-75
2022/07/23 03:21:04;;;;;;;6.05;3.05;;;;;;;;;;4944440;28;20074;-75
2022/07/23 03:23:29;;;;;;;6.03;3.70;;;;;;;;;;4938561;28;20038;-77
2022/07/23 03:25:55;;;;;;;4.10;3.08;;;;;;;;;;4939936;28;20031;-75
2022/07/23 03:28:20;;;;;;;8.25;3.47;;;;;;;;;;4943647;28;20102;-75
2022/07/23 03:30:46;;;;;;;5.90;3.60;;;;;;;;;;4954350;28;20027;-76
2022/07/23 03:33:14;;;;;;;5.80;3.92;;;;;;;;;;4944170;28;20031;-75
2022/07/23 03:35:39;;;;;;;4.90;3.80;;;;;;;;;;4931977;28;21995;-75
2022/07/23 03:38:07;;;;;;;4.32;3.47;;;;;;;;;;4941804;28;20039;-74
2022/07/23 03:40:32;;;;;;;6.43;4.20;;;;;;;;;;4955257;28;20146;-75
2022/07/23 03:43:00;;;;;;;4.55;3.75;;;;;;;;;;4939361;28;20037;-74
2022/07/23 03:45:30;;;;;;;4.68;4.00;;;;;;;;;;4942233;28;20043;-75
2022/07/23 03:47:56;;;;;;;8.05;4.30;;;;;;;;;;4939058;28;20038;-74
2022/07/23 03:50:22;;;;;;;5.68;4.20;;;;;;;;;;4940364;28;20045;-76
2022/07/23 03:52:48;;;;;;;7.55;4.40;;;;;;;;;;4953838;28;20043;-72
2022/07/23 03:55:13;;;;;;;8.43;4.43;;;;;;;;;;4953990;28;20150;-75
2022/07/23 03:57:39;;;;;;;5.93;4.07;;;;;;;;;;4939723;28;20753;-74
2022/07/23 04:00:06;;;;;;;7.22;4.25;;;;;;;;;;4936826;28;20038;-76
2022/07/23 04:02:34;;;;;;;7.65;4.28;;;;;;;;;;4954495;28;20812;-75
2022/07/23 04:05:02;;;;;;;5.93;4.20;;;;;;;;;;4938141;28;20053;-75
2022/07/23 04:07:27;;;;;;;7.90;4.30;;;;;;;;;;4938849;28;20039;-76
2022/07/23 04:09:53;;;;;;;5.32;3.80;;;;;;;;;;4939179;28;20113;-75
2022/07/23 04:12:20;;;;;;;7.38;4.22;;;;;;;;;;4939939;28;20145;-75
2022/07/23 04:14:45;;;;;;;7.95;4.28;;;;;;;;;;4932482;28;20057;-75
2022/07/23 04:17:11;;;;;;;6.03;3.95;;;;;;;;;;4938711;28;20082;-75
2022/07/23 04:19:39;;;;;;;11.05;4.55;;;;;;;;;;4939651;28;20145;-75
2022/07/23 04:22:08;;;;;;;7.07;4.03;;;;;;;;;;4938595;28;20833;-75
2022/07/23 04:24:34;;;;;;;5.70;4.20;;;;;;;;;;4939112;28;20046;-76
2022/07/23 04:26:59;;;;;;;6.70;4.15;;;;;;;;;;4937666;28;20123;-76
2022/07/23 04:29:27;;;;;;;7.80;4.47;;;;;;;;;;4934913;28;20150;-76
2022/07/23 04:31:53;;;;;;;7.90;4.45;;;;;;;;;;4935663;28;20062;-75
2022/07/23 04:34:18;;;;;;;7.43;4.57;;;;;;;;;;4934939;28;20053;-75
2022/07/23 04:36:43;;;;;;;8.63;4.63;;;;;;;;;;4935806;28;20158;-75
2022/07/23 04:39:09;;;;;;;8.98;4.80;;;;;;;;;;4935420;28;20074;-76
2022/07/23 04:41:34;;;;;;;6.70;5.05;;;;;;;;;;4934050;28;20038;-76
2022/07/23 04:43:59;;;;;;;9.18;5.40;;;;;;;;;;4948783;28;20045;-76
2022/07/23 04:46:25;;;;;;;9.73;4.93;;;;;;;;;;4949681;28;20038;-75
2022/07/23 04:48:50;;;;;;;7.90;4.60;;;;;;;;;;4935939;28;20132;-74
2022/07/23 04:51:16;;;;;;;7.55;4.90;;;;;;;;;;4934524;28;20038;-74
2022/07/23 04:53:41;;;;;;;7.25;4.07;;;;;;;;;;4936271;28;20038;-75
2022/07/23 04:56:07;;;;;;;4.63;3.47;;;;;;;;;;4933786;28;20889;-74
2022/07/23 04:58:32;;;;;;;5.47;3.65;;;;;;;;;;4943440;28;20046;-74
2022/07/23 05:00:58;;;;;;;6.15;3.20;;;;;;;;;;4934435;28;20073;-73
2022/07/23 05:03:23;;;;;;;5.60;3.10;;;;;;;;;;4932594;28;20104;-74
2022/07/23 05:05:50;;;;;;;7.68;2.38;;;;;;;;;;4922811;28;20133;-74
2022/07/23 05:08:16;;;;;;;7.38;2.50;;;;;;;;;;4933608;28;20042;-73
2022/07/23 05:10:41;;;;;;;8.23;2.65;;;;;;;;;;4934363;28;20133;-73
2022/07/23 05:13:07;;;;;;;5.43;2.17;;;;;;;;;;4935149;28;20137;-74
2022/07/23 05:15:32;;;;;;;4.57;2.10;;;;;;;;;;4932387;28;20778;-74
2022/07/23 05:17:59;;;;;;;5.00;2.20;;;;;;;;;;4931412;28;20038;-72
2022/07/23 05:20:28;;;;;;;3.42;2.03;;;;;;;;;;4934293;28;20054;-72
2022/07/23 05:22:53;;;;;;;4.38;2.10;;;;;;;;;;4947595;28;20039;-73
2022/07/23 05:25:18;;;;;;;3.95;1.73;;;;;;;;;;4932143;28;20042;-73
2022/07/23 05:27:44;;;;;;;5.25;1.83;;;;;;;;;;4947502;28;21021;-74
2022/07/23 05:30:09;;;;;;;5.70;1.70;;;;;;;;;;4932512;28;20042;-73
2022/07/23 05:32:36;;;;;;;7.22;1.58;;;;;;;;;;4930802;28;20030;-73
2022/07/23 05:35:02;;;;;;;4.32;1.60;;;;;;;;;;4930946;28;20042;-72
2022/07/23 05:37:27;;;;;;;6.00;1.73;;;;;;;;;;4932333;28;20196;-73
2022/07/23 05:39:53;;;;;;;2.58;1.20;;;;;;;;;;4933210;28;20953;-72
2022/07/23 05:42:18;;;;;;;3.70;1.80;;;;;;;;;;4932139;28;20095;-72
2022/07/23 05:44:43;;;;;;;3.80;1.30;;;;;;;;;;4931063;28;20045;-73
2022/07/23 05:47:11;;;;;;;5.00;1.38;;;;;;;;;;4930863;28;20918;-73
2022/07/23 05:49:37;;;;;;;4.70;1.60;;;;;;;;;;4946431;28;20035;-73
2022/07/23 05:52:03;;;;;;;4.47;1.70;;;;;;;;;;4934145;28;20899;-73
2022/07/23 05:54:28;;;;;;;3.78;1.55;;;;;;;;;;4932577;28;20050;-73
2022/07/23 05:56:54;;;;;;;6.70;1.58;;;;;;;;;;4932178;28;20655;-73
2022/07/23 05:59:19;;;;;;;3.92;1.70;;;;;;;;;;4930971;28;20073;-71
2022/07/23 06:01:44;;;;;;;3.72;1.50;;;;;;;;;;4931377;28;20037;-72
2022/07/23 06:04:10;;;;;;;6.18;1.58;;;;;;;;;;4931333;28;20038;-72
2022/07/23 06:06:40;;;;;;;4.93;1.20;;;;;;;;;;4932025;28;20142;-72
2022/07/23 06:09:07;;;;;;;7.03;1.67;;;;;;;;;;4934027;28;20137;-73
2022/07/23 06:11:33;;;;;;;8.07;1.63;;;;;;;;;;4946127;28;20050;-74
2022/07/23 06:13:58;;;;;;;3.10;1.50;;;;;;;;;;4935547;28;20127;-72
2022/07/23 06:16:23;;;;;;;4.57;1.40;;;;;;;;;;4932034;28;20039;-69
2022/07/23 06:18:48;;;;;;;5.75;1.20;;;;;;;;;;4931838;28;20023;-73
2022/07/23 06:21:14;;;;;;;3.47;1.20;;;;;;;;;;4931400;28;21542;-72
2022/07/23 06:23:39;;;;;;;6.43;1.50;;;;;;;;;;4932274;28;20057;-74
2022/07/23 06:26:04;;;;;;;3.47;1.35;;;;;;;;;;4932520;28;20035;-74
2022/07/23 06:28:29;;;;;;;2.40;1.05;;;;;;;;;;4932350;28;20034;-73
2022/07/23 06:30:55;;;;;;;4.10;1.38;;;;;;;;;;4932109;28;20039;-74
2022/07/23 06:33:23;;;;;;;2.75;1.00;;;;;;;;;;4930556;28;20273;-75
2022/07/23 06:35:48;;;;;;;2.33;1.13;;;;;;;;;;4931647;28;20095;-74
2022/07/23 06:38:13;;;;;;;7.03;1.50;;;;;;;;;;4945067;28;20134;-75
2022/07/23 06:40:39;;;;;;;4.85;1.25;;;;;;;;;;4932194;28;20406;-74
2022/07/23 06:43:04;;;;;;;2.50;1.00;;;;;;;;;;4930209;28;20933;-76
2022/07/23 06:45:30;;;;;;;2.08;0.77;;;;;;;;;;4931178;28;20030;-75
2022/07/23 06:47:55;;;;;;;4.68;0.90;;;;;;;;;;4930437;28;20041;-76
2022/07/23 06:50:20;;;;;;;2.83;0.60;;;;;;;;;;4932509;28;20463;-75
2022/07/23 06:52:45;;;;;;;2.22;0.60;;;;;;;;;;4934545;28;20042;-74
2022/07/23 06:55:13;;;;;;;2.85;0.93;;;;;;;;;;4931623;28;20671;-75
2022/07/23 06:57:41;;;;;;;3.70;0.90;;;;;;;;;;4930363;28;20038;-77
2022/07/23 07:00:06;;;;;;;4.05;1.10;;;;;;;;;;4931743;28;20030;-75
2022/07/23 07:02:32;;;;;;;3.17;1.08;;;;;;;;;;4930007;28;20058;-74
2022/07/23 07:04:59;;;;;;;3.13;1.00;;;;;;;;;;4942976;28;20411;-74
2022/07/23 07:07:25;;;;;;;2.45;0.80;;;;;;;;;;4944853;28;20157;-74
2022/07/23 07:09:52;;;;;;;4.03;1.10;;;;;;;;;;4931439;28;20429;-69
2022/07/23 07:12:18;;;;;;;3.22;0.95;;;;;;;;;;4932290;28;20043;-75
2022/07/23 07:14:45;;;;;;;3.10;0.93;;;;;;;;;;4931511;28;21167;-76
2022/07/23 07:17:13;;;;;;;3.60;0.90;;;;;;;;;;4931262;28;20031;-75
2022/07/23 07:19:38;;;;;;;3.33;0.70;;;;;;;;;;4934227;28;20639;-73
2022/07/23 07:22:04;;;;;;;4.70;0.80;;;;;;;;;;4926141;28;20050;-75
2022/07/23 07:24:29;;;;;;;3.47;1.00;;;;;;;;;;4957303;28;20264;-75
2022/07/23 07:26:56;;;;;;;3.03;0.70;;;;;;;;;;4931007;28;20031;-75
2022/07/23 07:29:22;;;;;;;2.60;0.80;;;;;;;;;;4944786;28;20434;-74
2022/07/23 07:31:47;;;;;;;3.17;0.70;;;;;;;;;;4928815;28;20299;-73
2022/07/23 07:34:12;;;;;;;2.83;0.80;;;;;;;;;;4935322;28;20050;-76
2022/07/23 07:36:38;;;;;;;3.63;0.80;;;;;;;;;;4934553;28;20042;-75
2022/07/23 07:39:06;;;;;;;3.28;0.70;;;;;;;;;;4929917;28;20313;-73
2022/07/23 07:41:32;;;;;;;2.50;0.75;;;;;;;;;;4929321;28;20098;-76
2022/07/23 07:43:59;;;;;;;3.78;0.77;;;;;;;;;;4925740;28;20165;-74
2022/07/23 07:46:27;;;;;;;2.65;0.82;;;;;;;;;;4944269;28;20027;-76
2022/07/23 07:48:52;;;;;;;2.13;0.80;;;;;;;;;;4942798;28;20522;-75
2022/07/23 07:51:18;;;;;;;3.50;0.73;;;;;;;;;;4930442;28;20034;-74
2022/07/23 07:53:46;;;;;;;2.88;0.80;;;;;;;;;;4928808;28;20532;-74
2022/07/23 07:56:11;;;;;;;2.25;0.50;;;;;;;;;;4929251;28;20421;-73
2022/07/23 07:58:36;;;;;;;1.60;0.50;;;;;;;;;;4929089;28;20432;-76
2022/07/23 08:01:02;;;;;;;3.70;0.70;;;;;;;;;;4929343;28;20046;-76
2022/07/23 08:03:30;;;;;;;2.85;0.50;;;;;;;;;;4931682;28;20449;-75
2022/07/23 08:05:55;;;;;;;3.10;0.70;;;;;;;;;;4933582;28;20494;-75
2022/07/23 08:08:23;;;;;;;2.92;0.70;;;;;;;;;;4933289;28;20121;-75
2022/07/23 08:10:48;;;;;;;2.95;0.70;;;;;;;;;;4934061;28;20572;-75
2022/07/23 08:13:14;;;;;;;3.65;0.85;;;;;;;;;;4933673;28;20039;-73
2022/07/23 08:15:40;;;;;;;2.33;0.60;;;;;;;;;;4915198;28;20322;-71
2022/07/23 08:18:08;;;;;;;3.58;0.70;;;;;;;;;;4931931;28;20299;-74
2022/07/23 08:20:38;;;;;;;1.88;0.60;;;;;;;;;;4932994;28;20039;-72
2022/07/23 08:23:09;;;;;;;1.08;0.63;;;;;;;;;;4932918;28;20498;-74
2022/07/23 08:25:36;;;;;;;2.53;0.40;;;;;;;;;;4933347;28;20031;-73
2022/07/23 08:28:05;;;;;;;2.35;0.75;;;;;;;;;;4930990;28;20073;-72
2022/07/23 08:30:31;;;;;;;1.73;0.50;;;;;;;;;;4930457;28;20424;-75
2022/07/23 08:32:59;;;;;;;2.15;0.40;;;;;;;;;;4930620;28;20031;-72
2022/07/23 08:35:32;;;;;;;2.63;0.50;;;;;;;;;;4933631;28;20113;-70
2022/07/23 08:37:58;;;;;;;2.28;0.50;;;;;;;;;;4933290;28;20189;-71
2022/07/23 08:40:26;;;;;;;2.38;0.63;;;;;;;;;;4945951;28;20569;-72
2022/07/23 08:42:54;;;;;;;1.63;0.50;;;;;;;;;;4932458;28;20039;-73
2022/07/23 08:45:20;;;;;;;1.05;0.50;;;;;;;;;;4935180;28;20830;-74
2022/07/23 08:47:47;;;;;;;3.35;0.80;;;;;;;;;;4931236;28;20035;-72
2022/07/23 08:50:13;;;;;;;2.47;0.55;;;;;;;;;;4930977;28;20047;-72
2022/07/23 08:52:39;;;;;;;1.58;0.50;;;;;;;;;;4929735;28;20062;-72
2022/07/23 08:55:05;;;;;;;3.92;0.50;;;;;;;;;;4931190;28;20578;-71
2022/07/23 08:57:30;;;;;;;1.95;0.52;;;;;;;;;;4930820;28;20391;-72
2022/07/23 08:59:56;;;;;;;3.35;0.50;;;;;;;;;;4930831;28;20953;-73
2022/07/23 09:02:22;;;;;;;2.15;0.82;;;;;;;;;;4932033;28;20062;-72
2022/07/23 09:04:47;;;;;;;1.75;0.70;;;;;;;;;;4932667;28;20712;-71
2022/07/23 09:07:13;;;;;;;1.88;0.50;;;;;;;;;;4931566;28;20385;-71
2022/07/23 09:09:38;;;;;;;1.75;0.60;;;;;;;;;;4937947;28;20130;-72
2022/07/23 09:12:03;;;;;;;1.40;0.40;;;;;;;;;;4930898;28;20042;-72
2022/07/23 09:14:40;;;;;;;3.30;0.80;;;;;;;;;;4932228;28;20031;-71
2022/07/23 09:17:09;;;;;;;2.40;0.68;;;;;;;;;;4932152;28;20090;-72
2022/07/23 09:19:34;;;;;;;6.22;0.82;;;;;;;;;;4931925;28;20571;-71
2022/07/23 09:22:15;;;;;;;1.58;0.60;;;;;;;;;;4937384;28;20066;-72
2022/07/23 09:25:03;;;;;;;3.60;0.90;;;;;;;;;;4931078;28;20039;-71
2022/07/23 09:27:47;;;;;;;3.80;0.90;;;;;;;;;;4932167;28;20055;-71
2022/07/23 09:30:12;;;;;;;1.30;0.60;;;;;;;;;;4930661;28;20034;-71
2022/07/23 09:32:41;;;;;;;3.40;0.80;;;;;;;;;;4931156;28;20035;-71
2022/07/23 09:35:07;;;;;;;3.40;0.73;;;;;;;;;;4930504;28;20046;-74
2022/07/23 09:37:32;;;;;;;3.53;0.68;;;;;;;;;;4932974;28;20800;-72
2022/07/23 09:40:08;;;;;;;2.72;0.77;;;;;;;;;;4929983;28;20038;-72
2022/07/23 09:42:36;;;;;;;2.20;0.65;;;;;;;;;;4930263;28;20519;-71
2022/07/23 09:45:10;;;;;;;3.05;0.80;;;;;;;;;;4930778;28;20502;-72
2022/07/23 09:47:35;;;;;;;3.13;0.80;;;;;;;;;;4931189;28;20057;-71
2022/07/23 09:50:06;;;;;;;1.40;0.47;;;;;;;;;;4930365;28;20265;-73
2022/07/23 09:52:32;;;;;;;2.97;0.80;;;;;;;;;;4933391;28;20590;-73
2022/07/23 09:55:01;;;;;;;3.22;0.70;;;;;;;;;;4931408;28;20294;-73
2022/07/23 09:57:27;;;;;;;6.10;0.90;;;;;;;;;;4931678;28;20809;-74
2022/07/23 09:59:57;;;;;;;2.55;0.90;;;;;;;;;;4931033;28;20038;-73
2022/07/23 10:02:22;;;;;;;1.85;0.80;;;;;;;;;;4944505;28;20760;-72
2022/07/23 10:04:47;;;;;;;1.77;0.60;;;;;;;;;;4928626;28;20096;-73
2022/07/23 10:07:13;;;;;;;2.05;0.60;;;;;;;;;;4934650;28;20049;-72
2022/07/23 10:09:39;;;;;;;2.42;0.60;;;;;;;;;;4931428;28;20207;-71
2022/07/23 10:14:38;;;;;;;3.13;0.70;;;;;;;;;;4929972;28;20050;-72
2022/07/23 10:17:06;;;;;;;2.83;0.80;;;;;;;;;;4931978;28;20031;-73
2022/07/23 10:19:32;;;;;;;2.13;0.80;;;;;;;;;;4927495;28;20405;-73
2022/07/23 10:21:59;;;;;;;0.90;0.57;;;;;;;;;;4931202;28;20097;-72
2022/07/23 10:24:48;;;;;;;2.15;0.77;;;;;;;;;;4938241;28;20448;-72
2022/07/23 10:27:21;;;;;;;2.58;0.73;;;;;;;;;;4944149;28;20081;-73
2022/07/23 10:29:55;;;;;;;3.33;0.70;;;;;;;;;;4931174;28;20317;-73
2022/07/23 10:32:34;;;;;;;4.10;0.98;;;;;;;;;;4933728;28;20558;-73
2022/07/23 10:35:20;;;;;;;2.90;0.70;;;;;;;;;;4928025;28;20503;-71
2022/07/23 10:37:53;;;;;;;2.63;0.70;;;;;;;;;;4928372;28;20180;-72
2022/07/23 10:40:21;;;;;;;3.45;0.88;;;;;;;;;;4928097;28;20042;-71
2022/07/23 10:42:47;;;;;;;2.50;0.90;;;;;;;;;;4927467;28;20363;-71
2022/07/23 10:45:32;;;;;;;2.10;0.88;;;;;;;;;;4930443;28;20035;-73
2022/07/23 10:48:13;;;;;;;2.38;0.95;;;;;;;;;;4931569;28;20861;-75
2022/07/23 10:50:39;;;;;;;2.78;0.93;;;;;;;;;;4932142;28;20109;-75
2022/07/23 10:53:08;;;;;;;3.85;1.13;;;;;;;;;;4931448;28;20038;-73
2022/07/23 10:55:33;;;;;;;2.10;0.80;;;;;;;;;;4931304;28;20053;-74
2022/07/23 10:57:59;;;;;;;3.65;0.90;;;;;;;;;;4931277;28;21065;-73
2022/07/23 11:00:34;;;;;;;2.28;0.90;;;;;;;;;;4928060;28;20294;-73
2022/07/23 11:03:06;;;;;;;4.35;0.73;;;;;;;;;;4930925;28;21725;-75
2022/07/23 11:05:42;;;;;;;1.10;0.68;;;;;;;;;;4932615;28;21183;-72
2022/07/23 11:08:15;;;;;;;2.13;0.60;;;;;;;;;;4929581;28;20031;-72
2022/07/23 11:10:42;;;;;;;2.53;0.70;;;;;;;;;;4930205;28;20046;-73
2022/07/23 11:13:26;;;;;;;2.05;0.70;;;;;;;;;;4931479;28;20109;-71
2022/07/23 11:16:00;;;;;;;2.85;0.73;;;;;;;;;;4931383;28;20046;-71
2022/07/23 11:18:44;;;;;;;1.33;0.70;;;;;;;;;;4931566;28;20077;-71
2022/07/23 11:21:20;;;;;;;5.10;0.70;;;;;;;;;;4929469;28;20910;-71
2022/07/23 11:24:03;;;;;;;4.03;0.77;;;;;;;;;;4927435;28;20038;-75
2022/07/23 11:26:42;;;;;;;2.90;0.70;;;;;;;;;;4942327;28;20089;-74
2022/07/23 11:29:25;;;;;;;2.88;0.75;;;;;;;;;;4929191;28;22329;-73
2022/07/23 11:31:55;;;;;;;1.20;0.60;;;;;;;;;;4928173;28;20154;-73
2022/07/23 11:34:32;;;;;;;2.47;0.70;;;;;;;;;;4931833;28;20038;-71
2022/07/23 11:36:58;;;;;;;2.67;0.75;;;;;;;;;;4942256;28;20240;-71
2022/07/23 11:39:24;;;;;;;3.92;0.57;;;;;;;;;;4932726;28;20252;-70
2022/07/23 11:41:50;;;;;;;1.85;0.70;;;;;;;;;;4934154;28;20750;-73
2022/07/23 11:44:26;;;;;;;1.50;0.70;;;;;;;;;;4932133;28;20120;-70
2022/07/23 11:47:05;;;;;;;7.13;0.70;;;;;;;;;;4931880;28;20054;-71
2022/07/23 11:49:33;;;;;;;2.58;0.73;;;;;;;;;;4932389;28;20069;-73
2022/07/23 11:52:12;;;;;;;2.38;0.70;;;;;;;;;;4935098;28;20035;-72
2022/07/23 11:54:57;;;;;;;2.03;0.60;;;;;;;;;;4931858;28;20042;-72
2022/07/23 11:57:27;;;;;;;4.00;0.80;;;;;;;;;;4932394;28;20035;-71
2022/07/23 11:59:55;;;;;;;2.70;0.60;;;;;;;;;;4934597;28;20134;-72
2022/07/23 12:02:21;;;;;;;4.60;0.80;;;;;;;;;;4935501;28;21271;-73
2022/07/23 12:04:49;;;;;;;2.17;0.75;;;;;;;;;;4935387;28;20039;-73
2022/07/23 12:07:33;;;;;;;2.92;0.80;;;;;;;;;;4938419;28;20026;-72
2022/07/23 12:10:24;;;;;;;3.70;0.63;;;;;;;;;;4932827;28;20034;-72
2022/07/23 12:12:52;;;;;;;2.03;0.73;;;;;;;;;;4935566;28;20035;-72
2022/07/23 12:15:22;;;;;;;2.38;0.70;;;;;;;;;;4935323;28;20081;-72
2022/07/23 12:17:50;;;;;;;2.42;0.80;;;;;;;;;;4933787;28;20058;-72
2022/07/23 12:20:17;;;;;;;3.00;0.60;;;;;;;;;;4934113;28;20042;-73
2022/07/23 12:22:47;;;;;;;2.47;0.63;;;;;;;;;;4934371;28;20050;-72
2022/07/23 12:25:16;;;;;;;2.88;0.70;;;;;;;;;;4949379;28;20804;-74
2022/07/23 12:27:43;;;;;;;2.28;0.60;;;;;;;;;;4934623;28;20120;-71
2022/07/23 12:30:21;;;;;;;1.95;0.68;;;;;;;;;;4934904;28;20636;-71
2022/07/23 12:32:47;;;;;;;3.03;0.70;;;;;;;;;;4933371;28;20053;-72
2022/07/23 12:35:13;;;;;;;3.35;0.70;;;;;;;;;;4934802;28;20956;-71
2022/07/23 12:37:40;;;;;;;2.60;0.70;;;;;;;;;;4935094;28;20728;-71
2022/07/23 12:40:26;;;;;;;3.60;0.80;;;;;;;;;;4933070;28;20043;-71
2022/07/23 12:42:56;;;;;;;1.77;0.60;;;;;;;;;;4934388;28;20039;-71
2022/07/23 12:45:22;;;;;;;3.17;0.80;;;;;;;;;;4940953;28;20736;-71
2022/07/23 12:48:00;;;;;;;2.72;0.70;;;;;;;;;;4934878;28;20039;-71
2022/07/23 12:50:35;;;;;;;3.20;0.60;;;;;;;;;;4935150;28;20887;-72
2022/07/23 12:53:09;;;;;;;2.55;0.65;;;;;;;;;;4932530;28;20039;-71
2022/07/23 12:55:35;;;;;;;2.53;0.80;;;;;;;;;;4935670;28;20046;-71
2022/07/23 12:58:05;;;;;;;2.03;0.57;;;;;;;;;;4934283;28;20046;-72
2022/07/23 13:00:49;;;;;;;1.52;0.60;;;;;;;;;;4934954;28;20046;-71
2022/07/23 13:03:32;;;;;;;4.07;0.80;;;;;;;;;;4935853;28;20035;-74
2022/07/23 13:05:58;;;;;;;2.38;0.77;;;;;;;;;;4936960;28;20864;-76
2022/07/23 13:08:24;;;;;;;13.70;11.48;;;;;;;;;;4934818;28;20042;-75
2022/07/23 13:10:51;;;;;;;28.35;23.95;;;;;;;;;;4932628;28;20089;-74
2022/07/23 13:13:19;;;;;;;91.43;59.80;;;;;;;;;;4931809;28;20519;-73
2022/07/23 13:15:44;;;;;;;278.95;172.52;;;;;;;;;;4931753;28;20189;-74
2022/07/23 13:18:10;;;;;;;177.32;117.28;;;;;;;;;;4932376;28;20086;-74
2022/07/23 13:20:36;;;;;;;42.92;36.88;;;;;;;;;;4931406;28;20344;-74
2022/07/23 13:23:04;;;;;;;36.78;28.83;;;;;;;;;;4944736;28;20815;-73
2022/07/23 13:25:31;;;;;;;7.53;5.35;;;;;;;;;;4926571;28;21187;-72
2022/07/23 13:27:57;;;;;;;7.43;5.68;;;;;;;;;;4931367;28;20141;-71
2022/07/23 13:30:22;;;;;;;5.82;4.00;;;;;;;;;;4931390;28;20622;-71
2022/07/23 13:32:48;;;;;;;4.75;1.40;;;;;;;;;;4931016;28;20046;-71
2022/07/23 13:35:14;;;;;;;5.13;1.65;;;;;;;;;;4930269;28;20267;-71
2022/07/23 13:37:39;;;;;;;5.47;1.20;;;;;;;;;;4933410;28;20035;-70
2022/07/23 13:40:04;;;;;;;2.40;0.98;;;;;;;;;;4932182;28;20042;-71
2022/07/23 13:42:33;;;;;;;5.65;1.30;;;;;;;;;;4928782;28;20165;-70
2022/07/23 13:45:01;;;;;;;2.35;1.30;;;;;;;;;;4929423;28;20049;-72
2022/07/23 13:47:26;;;;;;;2.17;1.23;;;;;;;;;;4928597;28;20555;-72
2022/07/23 13:49:51;;;;;;;7.22;3.90;;;;;;;;;;4928826;28;20089;-71
2022/07/23 13:52:17;;;;;;;3.17;1.40;;;;;;;;;;4930899;28;20834;-72
2022/07/23 13:54:42;;;;;;;4.25;1.73;;;;;;;;;;4932980;28;20053;-71
2022/07/23 13:57:08;;;;;;;7.13;5.05;;;;;;;;;;4947560;28;20027;-73
2022/07/23 13:59:34;;;;;;;11.55;10.55;;;;;;;;;;4932007;28;20050;-73
2022/07/23 14:02:00;;;;;;;3.30;2.05;;;;;;;;;;4930931;28;20058;-70
2022/07/23 14:04:26;;;;;;;11.43;10.40;;;;;;;;;;4934165;28;20039;-71
2022/07/23 14:06:51;;;;;;;3.50;2.88;;;;;;;;;;4933254;28;21271;-71
2022/07/23 14:09:16;;;;;;;10.18;8.25;;;;;;;;;;4932206;28;20108;-70
2022/07/23 14:11:41;;;;;;;4.35;1.15;;;;;;;;;;4933132;28;20049;-72
2022/07/23 14:14:07;;;;;;;4.70;1.00;;;;;;;;;;4931734;28;20038;-70
2022/07/23 14:16:32;;;;;;;2.50;0.90;;;;;;;;;;4937396;28;20057;-71
2022/07/23 14:18:57;;;;;;;3.97;1.10;;;;;;;;;;4932749;28;20023;-72
2022/07/23 14:21:23;;;;;;;3.22;0.90;;;;;;;;;;4932239;28;20050;-71
2022/07/23 14:23:48;;;;;;;3.45;0.90;;;;;;;;;;4932100;28;20148;-72
2022/07/23 14:26:13;;;;;;;4.07;0.80;;;;;;;;;;4932162;28;21150;-72
2022/07/23 14:28:39;;;;;;;3.95;1.10;;;;;;;;;;4931830;28;20043;-72
2022/07/23 14:31:04;;;;;;;2.92;0.90;;;;;;;;;;4931587;28;20042;-71
2022/07/23 14:33:29;;;;;;;2.10;0.80;;;;;;;;;;4933369;28;20062;-72
2022/07/23 14:35:55;;;;;;;2.70;0.95;;;;;;;;;;4931015;28;20049;-72
2022/07/23 14:38:20;;;;;;;3.30;1.20;;;;;;;;;;4931422;28;20035;-73
2022/07/23 14:40:45;;;;;;;3.05;0.80;;;;;;;;;;4932974;28;20050;-72
2022/07/23 14:43:13;;;;;;;2.67;1.00;;;;;;;;;;4931655;28;20046;-71
2022/07/23 14:45:38;;;;;;;2.50;1.10;;;;;;;;;;4932239;28;20026;-71
2022/07/23 14:48:03;;;;;;;2.17;0.90;;;;;;;;;;4928786;28;20114;-71